createdAt,value
2018-11-04T00:01:59.637Z,40.05
2018-11-04T00:04:28.861Z,38.80
2018-11-04T00:06:58.077Z,40.80
2018-11-04T00:09:27.376Z,42.40
2018-11-04T00:11:56.582Z,41.42
2018-11-04T00:14:25.765Z,40.55
2018-11-04T00:16:55.566Z,41.53
2018-11-04T00:19:24.804Z,41.13
2018-11-04T00:21:54.025Z,41.23
2018-11-04T00:24:23.241Z,43.25
2018-11-04T00:26:52.464Z,45.00
2018-11-04T00:29:21.709Z,44.35
2018-11-04T00:31:50.933Z,45.08
2018-11-04T00:34:20.118Z,39.98
2018-11-04T00:36:49.328Z,44.42
2018-11-04T00:39:18.509Z,44.30
2018-11-04T00:41:47.727Z,45.63
2018-11-04T00:44:16.918Z,43.15
2018-11-04T00:46:46.136Z,42.73
2018-11-04T00:49:15.348Z,41.55
2018-11-04T00:51:44.580Z,45.03
2018-11-04T00:54:13.772Z,45.80
2018-11-04T00:56:42.973Z,44.93
2018-11-04T00:59:12.193Z,45.25
2018-11-04T01:01:41.398Z,46.58
2018-11-04T01:04:10.592Z,50.23
2018-11-04T01:06:39.856Z,50.43
2018-11-04T01:09:09.935Z,45.58
2018-11-04T01:11:39.242Z,44.85
2018-11-04T01:14:08.514Z,52.30
2018-11-04T01:16:37.721Z,45.48
2018-11-04T01:19:06.917Z,43.85
2018-11-04T01:21:36.170Z,44.75
2018-11-04T01:24:05.378Z,42.70
2018-11-04T01:26:34.629Z,44.08
2018-11-04T01:29:03.849Z,43.45
2018-11-04T01:31:33.074Z,46.02
2018-11-04T01:34:02.300Z,46.83
2018-11-04T01:36:31.509Z,51.13
2018-11-04T01:39:00.910Z,44.38
2018-11-04T01:41:30.915Z,46.20
2018-11-04T01:44:00.190Z,43.50
2018-11-04T01:46:29.420Z,45.70
2018-11-04T01:48:58.642Z,48.90
2018-11-04T01:51:27.880Z,47.35
2018-11-04T01:53:57.105Z,48.52
2018-11-04T01:56:26.334Z,49.85
2018-11-04T01:58:55.575Z,48.25
2018-11-04T02:01:24.804Z,51.70
2018-11-04T02:03:54.077Z,51.35
2018-11-04T02:06:23.345Z,51.30
2018-11-04T02:08:52.601Z,46.98
2018-11-04T02:11:21.858Z,48.02
2018-11-04T02:13:51.981Z,44.63
2018-11-04T02:16:21.188Z,48.05
2018-11-04T02:18:50.417Z,47.35
2018-11-04T02:21:19.608Z,47.98
2018-11-04T02:23:48.881Z,44.95
2018-11-04T02:26:18.097Z,46.23
2018-11-04T02:28:47.312Z,46.83
2018-11-04T02:31:16.509Z,46.50
2018-11-04T02:33:45.777Z,46.25
2018-11-04T02:36:15.209Z,50.88
2018-11-04T02:38:44.473Z,47.93
2018-11-04T02:41:13.703Z,46.55
2018-11-04T02:43:42.933Z,46.35
2018-11-04T02:46:12.131Z,53.75
2018-11-04T02:48:41.636Z,49.05
2018-11-04T02:51:10.855Z,48.65
2018-11-04T02:53:40.113Z,47.83
2018-11-04T02:56:09.297Z,46.68
2018-11-04T02:58:38.499Z,44.80
2018-11-04T03:01:07.747Z,44.60
2018-11-04T03:03:36.997Z,42.62
2018-11-04T03:06:06.505Z,49.05
2018-11-04T03:08:35.930Z,42.20
2018-11-04T03:11:05.317Z,45.10
2018-11-04T03:13:34.577Z,44.23
2018-11-04T03:16:03.786Z,41.42
2018-11-04T03:18:33.032Z,46.73
2018-11-04T03:21:02.241Z,42.60
2018-11-04T03:23:31.465Z,47.55
2018-11-04T03:26:00.654Z,47.80
2018-11-04T03:28:29.905Z,49.13
2018-11-04T03:30:59.203Z,49.10
2018-11-04T03:33:28.433Z,49.93
2018-11-04T03:35:57.672Z,46.98
2018-11-04T03:38:26.906Z,51.53
2018-11-04T03:40:56.141Z,54.55
2018-11-04T03:43:25.414Z,48.38
2018-11-04T03:45:54.628Z,47.50
2018-11-04T03:48:23.877Z,49.03
2018-11-04T03:50:53.080Z,55.08
2018-11-04T03:53:22.346Z,50.58
2018-11-04T03:55:51.565Z,51.28
2018-11-04T03:58:21.550Z,52.10
2018-11-04T04:00:50.774Z,52.10
2018-11-04T04:03:20.006Z,50.40
2018-11-04T04:05:49.250Z,49.40
2018-11-04T04:08:18.481Z,50.88
2018-11-04T04:10:47.669Z,52.33
2018-11-04T04:13:16.888Z,52.25
2018-11-04T04:15:46.136Z,53.98
2018-11-04T04:18:15.386Z,53.65
2018-11-04T04:20:44.621Z,52.03
2018-11-04T04:23:13.846Z,54.83
2018-11-04T04:25:43.098Z,52.50
2018-11-04T04:28:12.313Z,53.92
2018-11-04T04:30:41.560Z,55.15
2018-11-04T04:33:10.783Z,50.65
2018-11-04T04:35:40.213Z,53.20
2018-11-04T04:38:09.469Z,51.90
2018-11-04T04:40:38.658Z,55.55
2018-11-04T04:43:07.868Z,52.98
2018-11-04T04:45:37.061Z,52.20
2018-11-04T04:48:06.715Z,52.45
2018-11-04T04:50:35.973Z,54.50
2018-11-04T04:53:05.573Z,53.42
2018-11-04T04:55:34.890Z,51.98
2018-11-04T04:58:04.117Z,51.68
2018-11-04T05:00:33.571Z,51.30
2018-11-04T05:03:02.838Z,50.92
2018-11-04T05:05:32.469Z,47.00
2018-11-04T05:08:01.728Z,50.43
2018-11-04T05:10:31.081Z,48.40
2018-11-04T05:13:00.347Z,53.40
2018-11-04T05:15:29.545Z,53.63
2018-11-04T05:17:58.768Z,54.70
2018-11-04T05:20:27.968Z,50.52
2018-11-04T05:23:00.152Z,52.05
2018-11-04T05:25:29.415Z,51.48
2018-11-04T05:27:58.669Z,49.42
2018-11-04T05:30:27.903Z,49.48
2018-11-04T05:32:57.101Z,48.45
2018-11-04T05:35:27.487Z,46.83
2018-11-04T05:37:56.689Z,48.73
2018-11-04T05:40:25.936Z,44.90
2018-11-04T05:42:55.157Z,44.67
2018-11-04T05:45:24.400Z,45.33
2018-11-04T05:47:53.621Z,42.58
2018-11-04T05:50:22.837Z,41.42
2018-11-04T05:52:52.531Z,44.35
2018-11-04T05:55:21.777Z,49.45
2018-11-04T05:57:51.151Z,46.58
2018-11-04T06:00:20.411Z,45.52
2018-11-04T06:02:49.629Z,41.68
2018-11-04T06:05:18.878Z,43.52
2018-11-04T06:07:48.080Z,45.65
2018-11-04T06:10:17.386Z,45.23
2018-11-04T06:12:46.576Z,43.13
2018-11-04T06:15:15.833Z,43.58
2018-11-04T06:17:45.043Z,46.10
2018-11-04T06:20:14.257Z,42.70
2018-11-04T06:22:44.248Z,42.80
2018-11-04T06:25:13.493Z,42.75
2018-11-04T06:27:42.712Z,44.65
2018-11-04T06:30:13.097Z,40.45
2018-11-04T06:32:43.083Z,41.58
2018-11-04T06:35:12.357Z,40.28
2018-11-04T06:37:41.592Z,46.02
2018-11-04T06:40:11.202Z,43.58
2018-11-04T06:42:40.593Z,42.75
2018-11-04T06:45:10.657Z,40.38
2018-11-04T06:47:40.255Z,41.65
2018-11-04T06:50:12.186Z,41.35
2018-11-04T06:52:41.772Z,42.88
2018-11-04T06:55:11.193Z,39.73
2018-11-04T06:57:40.892Z,42.45
2018-11-04T07:00:11.748Z,43.95
2018-11-04T07:02:41.130Z,42.43
2018-11-04T07:05:10.384Z,40.88
2018-11-04T07:07:39.587Z,43.63
2018-11-04T07:10:09.690Z,40.30
2018-11-04T07:12:39.028Z,36.20
2018-11-04T07:15:08.259Z,38.90
2018-11-04T07:17:37.522Z,40.15
2018-11-04T07:20:08.231Z,38.80
2018-11-04T07:22:37.641Z,42.35
2018-11-04T07:25:07.301Z,46.33
2018-11-04T07:27:36.489Z,41.65
2018-11-04T07:30:08.185Z,36.88
2018-11-04T07:32:37.421Z,42.35
2018-11-04T07:35:07.206Z,43.15
2018-11-04T07:37:36.469Z,44.25
2018-11-04T07:40:07.038Z,44.42
2018-11-04T07:42:36.288Z,44.35
2018-11-04T07:45:07.010Z,42.33
2018-11-04T07:47:36.201Z,45.50
2018-11-04T07:50:10.373Z,50.58
2018-11-04T07:52:39.588Z,46.53
2018-11-04T07:55:09.569Z,44.50
2018-11-04T07:57:43.595Z,44.08
2018-11-04T08:00:14.934Z,46.13
2018-11-04T08:02:44.662Z,42.30
2018-11-04T08:05:13.903Z,41.75
2018-11-04T08:07:43.208Z,42.60
2018-11-04T08:10:13.717Z,42.80
2018-11-04T08:12:42.936Z,42.78
2018-11-04T08:15:12.378Z,41.42
2018-11-04T08:17:41.618Z,42.17
2018-11-04T08:20:11.371Z,41.85
2018-11-04T08:22:40.982Z,45.63
2018-11-04T08:25:10.214Z,40.20
2018-11-04T08:27:39.444Z,40.20
2018-11-04T08:30:09.506Z,39.88
2018-11-04T08:32:38.737Z,37.78
2018-11-04T08:35:08.070Z,37.30
2018-11-04T08:37:37.336Z,42.38
2018-11-04T08:40:07.265Z,42.43
2018-11-04T08:42:36.476Z,38.70
2018-11-04T08:45:07.032Z,41.10
2018-11-04T08:47:36.286Z,41.05
2018-11-04T08:50:07.573Z,43.63
2018-11-04T08:52:36.963Z,37.38
2018-11-04T08:55:07.333Z,36.00
2018-11-04T08:57:36.588Z,39.18
2018-11-04T09:00:08.327Z,36.45
2018-11-04T09:02:37.454Z,36.28
2018-11-04T09:05:07.377Z,36.65
2018-11-04T09:07:36.610Z,35.78
2018-11-04T09:10:10.182Z,35.25
2018-11-04T09:12:39.376Z,33.25
2018-11-04T09:15:09.701Z,32.23
2018-11-04T09:17:38.901Z,33.15
2018-11-04T09:20:11.606Z,34.53
2018-11-04T09:22:41.618Z,34.20
2018-11-04T09:25:11.713Z,35.05
2018-11-04T09:27:40.949Z,38.95
2018-11-04T09:30:15.317Z,41.77
2018-11-04T09:32:44.536Z,31.52
2018-11-04T09:35:13.825Z,34.43
2018-11-04T09:37:43.001Z,31.75
2018-11-04T09:40:16.270Z,30.23
2018-11-04T09:42:45.465Z,29.15
2018-11-04T09:45:14.658Z,27.22
2018-11-04T09:47:43.847Z,27.70
2018-11-04T09:50:13.300Z,28.17
2018-11-04T09:52:42.524Z,29.48
2018-11-04T09:55:12.521Z,29.42
2018-11-04T09:57:41.766Z,29.95
2018-11-04T10:00:12.493Z,29.72
2018-11-04T10:02:41.954Z,30.35
2018-11-04T10:05:11.780Z,29.75
2018-11-04T10:07:41.086Z,25.75
2018-11-04T10:10:12.593Z,30.15
2018-11-04T10:12:42.965Z,27.05
2018-11-04T10:15:12.214Z,27.73
2018-11-04T10:17:41.979Z,28.65
2018-11-04T10:20:12.727Z,27.93
2018-11-04T10:22:42.188Z,27.55
2018-11-04T10:25:16.926Z,25.80
2018-11-04T10:27:46.147Z,24.07
2018-11-04T10:30:16.768Z,24.37
2018-11-04T10:32:46.225Z,21.02
2018-11-04T10:35:15.441Z,22.45
2018-11-04T10:37:44.657Z,22.82
2018-11-04T10:40:14.220Z,19.12
2018-11-04T10:42:43.424Z,21.37
2018-11-04T10:45:12.704Z,21.93
2018-11-04T10:47:41.934Z,21.05
2018-11-04T10:50:17.645Z,21.52
2018-11-04T10:52:46.893Z,21.10
2018-11-04T10:55:16.113Z,23.40
2018-11-04T10:57:45.405Z,21.65
2018-11-04T11:00:19.905Z,22.13
2018-11-04T11:02:49.191Z,21.97
2018-11-04T11:05:18.399Z,23.57
2018-11-04T11:07:47.631Z,20.08
2018-11-04T11:10:16.839Z,21.23
2018-11-04T11:12:46.054Z,21.80
2018-11-04T11:15:15.321Z,21.42
2018-11-04T11:17:44.571Z,23.40
2018-11-04T11:20:13.773Z,22.00
2018-11-04T11:22:43.353Z,21.50
2018-11-04T11:25:12.521Z,20.25
2018-11-04T11:27:41.728Z,19.77
2018-11-04T11:30:10.964Z,18.98
2018-11-04T11:32:40.173Z,18.30
2018-11-04T11:35:09.383Z,15.85
2018-11-04T11:37:38.642Z,18.10
2018-11-04T11:40:09.109Z,16.30
2018-11-04T11:42:38.424Z,16.37
2018-11-04T11:45:08.767Z,16.42
2018-11-04T11:47:37.979Z,15.63
2018-11-04T11:50:07.520Z,14.58
2018-11-04T11:52:36.832Z,11.83
2018-11-04T11:55:06.500Z,12.43
2018-11-04T11:57:36.035Z,11.53
2018-11-04T12:00:07.290Z,12.80
2018-11-04T12:02:36.928Z,10.95
2018-11-04T12:05:06.722Z,11.68
2018-11-04T12:07:36.031Z,9.33
2018-11-04T12:10:06.784Z,12.33
2018-11-04T12:12:36.088Z,11.10
2018-11-04T12:15:06.154Z,10.60
2018-11-04T12:17:35.488Z,11.90
2018-11-04T12:20:05.696Z,10.75
2018-11-04T12:22:34.907Z,9.65
2018-11-04T12:25:04.385Z,10.03
2018-11-04T12:27:33.601Z,9.50
2018-11-04T12:30:02.823Z,10.90
2018-11-04T12:32:32.048Z,10.63
2018-11-04T12:35:01.298Z,9.73
2018-11-04T12:37:30.521Z,10.35
2018-11-04T12:39:59.792Z,10.58
2018-11-04T12:42:29.121Z,9.00
2018-11-04T12:44:58.364Z,8.25
2018-11-04T12:47:27.588Z,9.85
2018-11-04T12:49:56.801Z,9.50
2018-11-04T12:52:26.115Z,8.98
2018-11-04T12:54:55.308Z,9.30
2018-11-04T12:57:24.610Z,8.13
2018-11-04T12:59:53.853Z,9.05
2018-11-04T13:02:23.122Z,9.23
2018-11-04T13:04:52.398Z,10.78
2018-11-04T13:07:21.645Z,9.23
2018-11-04T13:09:50.958Z,8.85
2018-11-04T13:12:20.162Z,8.80
2018-11-04T13:14:49.363Z,10.00
2018-11-04T13:17:18.603Z,9.18
2018-11-04T13:19:47.828Z,9.45
2018-11-04T13:22:17.082Z,8.68
2018-11-04T13:24:46.283Z,9.50
2018-11-04T13:27:15.497Z,8.60
2018-11-04T13:29:44.682Z,6.33
2018-11-04T13:32:13.900Z,5.45
2018-11-04T13:34:43.115Z,4.78
2018-11-04T13:37:12.341Z,4.55
2018-11-04T13:39:41.569Z,5.50
2018-11-04T13:42:10.795Z,5.65
2018-11-04T13:44:40.046Z,9.60
2018-11-04T13:47:09.251Z,5.72
2018-11-04T13:49:38.537Z,6.15
2018-11-04T13:52:07.769Z,6.25
2018-11-04T13:54:37.035Z,6.80
2018-11-04T13:57:06.227Z,6.87
2018-11-04T13:59:35.430Z,7.08
2018-11-04T14:02:04.653Z,7.35
2018-11-04T14:04:33.864Z,7.60
2018-11-04T14:07:03.160Z,8.30
2018-11-04T14:09:32.378Z,7.55
2018-11-04T14:12:01.627Z,7.72
2018-11-04T14:14:30.906Z,8.50
2018-11-04T14:17:00.140Z,8.38
2018-11-04T14:19:29.389Z,7.28
2018-11-04T14:21:58.657Z,7.62
2018-11-04T14:24:27.916Z,7.90
2018-11-04T14:26:57.281Z,8.08
2018-11-04T14:29:26.692Z,7.53
2018-11-04T14:31:55.929Z,7.45
2018-11-04T14:34:25.194Z,7.10
2018-11-04T14:36:54.426Z,7.75
2018-11-04T14:39:23.649Z,7.12
2018-11-04T14:41:52.907Z,7.12
2018-11-04T14:44:22.142Z,5.40
2018-11-04T14:46:51.396Z,6.40
2018-11-04T14:49:20.613Z,5.47
2018-11-04T14:51:49.837Z,6.20
2018-11-04T14:54:19.114Z,5.22
2018-11-04T14:56:48.482Z,5.87
2018-11-04T14:59:18.952Z,6.35
2018-11-04T15:01:50.765Z,5.95
2018-11-04T15:04:20.004Z,5.60
2018-11-04T15:06:49.324Z,6.22
2018-11-04T15:09:18.528Z,5.75
2018-11-04T15:11:47.732Z,5.92
2018-11-04T15:14:17.005Z,6.42
2018-11-04T15:16:46.233Z,6.17
2018-11-04T15:19:15.519Z,5.65
2018-11-04T15:21:45.410Z,6.33
2018-11-04T15:24:14.769Z,6.78
2018-11-04T15:26:43.977Z,5.83
2018-11-04T15:29:13.209Z,6.00
2018-11-04T15:31:42.613Z,5.97
2018-11-04T15:34:11.899Z,5.50
2018-11-04T15:36:41.136Z,6.50
2018-11-04T15:39:12.107Z,6.75
2018-11-04T15:41:41.325Z,6.15
2018-11-04T15:44:10.912Z,6.53
2018-11-04T15:46:40.137Z,5.47
2018-11-04T15:49:10.135Z,6.67
2018-11-04T15:51:39.504Z,6.50
2018-11-04T15:54:08.817Z,6.87
2018-11-04T15:56:38.020Z,7.50
2018-11-04T15:59:07.513Z,6.03
2018-11-04T16:01:36.805Z,6.42
2018-11-04T16:04:06.207Z,6.97
2018-11-04T16:06:35.401Z,9.03
2018-11-04T16:09:06.243Z,6.60
2018-11-04T16:11:35.553Z,6.35
2018-11-04T16:14:04.962Z,7.92
2018-11-04T16:16:34.209Z,7.03
2018-11-04T16:19:03.464Z,6.37
2018-11-04T16:21:32.738Z,6.83
2018-11-04T16:24:01.980Z,6.30
2018-11-04T16:26:31.185Z,6.53
2018-11-04T16:29:00.392Z,7.03
2018-11-04T16:31:29.653Z,6.85
2018-11-04T16:33:58.902Z,6.53
2018-11-04T16:36:28.125Z,7.70
2018-11-04T16:38:57.449Z,5.85
2018-11-04T16:41:26.677Z,6.10
2018-11-04T16:43:55.983Z,6.95
2018-11-04T16:46:25.144Z,7.20
2018-11-04T16:48:54.480Z,6.50
2018-11-04T16:51:25.842Z,5.95
2018-11-04T16:53:55.154Z,6.80
2018-11-04T16:56:24.651Z,8.25
2018-11-04T16:58:53.916Z,7.03
2018-11-04T17:01:23.182Z,8.88
2018-11-04T17:03:52.518Z,7.78
2018-11-04T17:06:21.793Z,6.97
2018-11-04T17:08:51.058Z,8.53
2018-11-04T17:11:20.298Z,9.28
2018-11-04T17:13:49.581Z,7.97
2018-11-04T17:16:21.020Z,9.10
2018-11-04T17:18:50.297Z,7.85
2018-11-04T17:21:19.508Z,7.47
2018-11-04T17:23:48.796Z,7.87
2018-11-04T17:26:18.053Z,8.10
2018-11-04T17:28:47.281Z,7.97
2018-11-04T17:31:16.521Z,8.83
2018-11-04T17:33:45.749Z,8.80
2018-11-04T17:36:15.054Z,8.90
2018-11-04T17:38:44.310Z,10.63
2018-11-04T17:41:13.550Z,8.70
2018-11-04T17:43:42.786Z,9.23
2018-11-04T17:46:12.045Z,9.28
2018-11-04T17:48:41.264Z,9.25
2018-11-04T17:51:10.529Z,11.60
2018-11-04T17:53:39.877Z,8.70
2018-11-04T17:56:09.417Z,9.95
2018-11-04T17:58:38.649Z,10.13
2018-11-04T18:01:07.949Z,8.95
2018-11-04T18:03:37.189Z,9.58
2018-11-04T18:06:06.802Z,8.75
2018-11-04T18:08:36.040Z,10.20
2018-11-04T18:11:05.350Z,10.35
2018-11-04T18:13:34.570Z,10.50
2018-11-04T18:16:03.844Z,9.08
2018-11-04T18:18:33.065Z,9.20
2018-11-04T18:21:02.320Z,9.95
2018-11-04T18:23:31.749Z,10.13
2018-11-04T18:26:01.041Z,10.35
2018-11-04T18:28:30.340Z,10.20
2018-11-04T18:30:59.693Z,10.32
2018-11-04T18:33:28.937Z,10.10
2018-11-04T18:35:58.186Z,10.03
2018-11-04T18:38:27.590Z,9.33
2018-11-04T18:40:56.868Z,8.90
2018-11-04T18:43:26.713Z,10.72
2018-11-04T18:45:56.004Z,11.78
2018-11-04T18:48:25.227Z,8.65
2018-11-04T18:50:54.515Z,9.05
2018-11-04T18:53:23.809Z,9.98
2018-11-04T18:55:53.292Z,9.98
2018-11-04T18:58:23.711Z,8.93
2018-11-04T19:00:58.165Z,10.53
2018-11-04T19:03:40.465Z,12.13
2018-11-04T19:06:10.058Z,11.48
2018-11-04T19:08:41.161Z,11.00
2018-11-04T19:11:13.421Z,13.15
2018-11-04T19:13:46.855Z,11.12
2018-11-04T19:16:20.829Z,11.70
2018-11-04T19:21:31.494Z,11.57
2018-11-04T19:24:01.851Z,11.55
2018-11-04T19:26:34.592Z,14.65
2018-11-04T19:29:04.078Z,13.70
2018-11-04T19:31:33.420Z,14.55
2018-11-04T19:34:02.728Z,14.33
2018-11-04T19:36:32.244Z,12.07
2018-11-04T19:39:03.187Z,15.95
2018-11-04T19:41:32.840Z,14.75
2018-11-04T19:44:06.976Z,13.13
2018-11-04T19:46:36.602Z,18.55
2018-11-04T19:49:06.268Z,14.87
2018-11-04T19:51:35.737Z,14.40
2018-11-04T19:54:05.696Z,14.93
2018-11-04T19:56:35.393Z,18.15
2018-11-04T19:59:04.945Z,13.78
2018-11-04T20:01:34.311Z,13.95
2018-11-04T20:04:04.870Z,12.53
2018-11-04T20:14:05.459Z,11.12
2018-11-04T20:16:34.704Z,15.05
2018-11-04T20:19:09.349Z,34.35
2018-11-04T20:21:38.560Z,14.85
2018-11-04T20:24:13.049Z,10.45
2018-11-04T20:26:42.299Z,10.08
2018-11-04T20:29:11.505Z,10.85
2018-11-04T20:31:46.124Z,16.87
2018-11-04T20:34:15.345Z,12.73
2018-11-04T20:36:44.855Z,11.43
2018-11-04T20:39:19.428Z,11.90
2018-11-04T20:41:48.665Z,13.58
2018-11-04T20:44:17.898Z,15.53
2018-11-04T20:46:47.203Z,14.20
2018-11-04T20:49:21.900Z,11.70
2018-11-04T20:51:51.211Z,18.27
2018-11-04T20:54:20.427Z,12.60
2018-11-04T20:56:55.095Z,10.05
2018-11-04T20:59:24.344Z,11.35
2018-11-04T21:01:53.642Z,13.30
2018-11-04T21:04:22.822Z,11.60
2018-11-04T21:06:52.050Z,10.50
2018-11-04T21:09:21.293Z,12.60
2018-11-04T21:11:50.542Z,10.75
2018-11-04T21:14:19.835Z,11.05
2018-11-04T21:16:49.152Z,9.95
2018-11-04T21:19:18.290Z,10.70
2018-11-04T21:21:47.583Z,12.10
2018-11-04T21:24:16.818Z,14.23
2018-11-04T21:26:46.060Z,11.53
2018-11-04T21:29:15.458Z,18.92
2018-11-04T21:31:44.542Z,17.27
2018-11-04T21:34:13.745Z,18.30
2018-11-04T21:36:44.626Z,18.73
2018-11-04T21:39:13.848Z,15.28
2018-11-04T21:41:43.082Z,15.38
2018-11-04T21:44:12.481Z,15.28
2018-11-04T21:46:41.591Z,17.20
2018-11-04T21:49:10.789Z,17.17
2018-11-04T21:51:40.027Z,18.60
2018-11-04T21:54:09.262Z,18.57
2018-11-04T21:56:38.694Z,19.48
2018-11-04T21:59:07.792Z,22.42
2018-11-04T22:01:37.057Z,19.45
2018-11-04T22:04:06.510Z,17.87
2018-11-04T22:06:35.753Z,20.25
2018-11-04T22:09:12.033Z,18.92
2018-11-04T22:11:41.320Z,20.17
2018-11-04T22:14:10.578Z,19.02
2018-11-04T22:16:39.858Z,20.40
2018-11-04T22:19:09.088Z,21.23
2018-11-04T22:21:38.349Z,19.17
2018-11-04T22:24:07.559Z,22.00
2018-11-04T22:26:36.814Z,21.27
2018-11-04T22:29:06.119Z,19.90
2018-11-04T22:31:35.367Z,20.02
2018-11-04T22:34:04.622Z,20.15
2018-11-04T22:36:33.942Z,19.87
2018-11-04T22:39:03.249Z,20.80
2018-11-04T22:41:32.478Z,17.73
2018-11-04T22:44:01.690Z,18.17
2018-11-04T22:46:30.917Z,19.17
2018-11-04T22:49:00.153Z,17.67
2018-11-04T22:51:29.405Z,16.97
2018-11-04T22:53:58.652Z,17.32
2018-11-04T22:56:27.971Z,19.77
2018-11-04T22:58:57.148Z,19.23
2018-11-04T23:01:26.489Z,15.35
2018-11-04T23:03:55.753Z,16.05
2018-11-04T23:06:27.117Z,20.08
2018-11-04T23:08:56.378Z,17.23
2018-11-04T23:11:25.581Z,17.42
2018-11-04T23:13:54.836Z,28.00
2018-11-04T23:16:24.049Z,16.57
2018-11-04T23:18:53.274Z,20.57
2018-11-04T23:21:22.472Z,19.57
2018-11-04T23:23:51.708Z,18.87
2018-11-04T23:26:20.943Z,18.27
2018-11-04T23:28:50.223Z,23.73
2018-11-04T23:31:19.426Z,17.73
2018-11-04T23:33:48.637Z,23.50
2018-11-04T23:36:17.807Z,17.82
2018-11-04T23:38:47.028Z,18.80
2018-11-04T23:41:16.270Z,16.27
2018-11-04T23:43:45.505Z,18.35
2018-11-04T23:46:14.723Z,19.45
2018-11-04T23:48:43.928Z,15.72
2018-11-04T23:51:13.130Z,13.90
2018-11-04T23:53:42.409Z,17.30
2018-11-04T23:56:11.596Z,21.02
2018-11-04T23:58:40.847Z,17.02
